Time;durP1;ratioP1;P1;durP2;ratioP2;P2;SDS_P1;SDS_P2;PMS_P1;PMS_P2;Temp;Humidity;BMP_temperature;BMP_pressure;BME280_temperature;BME280_humidity;BME280_pressure;Samples;Min_cycle;Max_cycle;Signal;HPM_P1;HPM_P2
2023/06/21 00:01:35;;;;;;;9.77;6.43;;;;;;;23.16;94.98;99819.34;5048056;28;20085;-62
2023/06/21 00:04:00;;;;;;;11.57;7.22;;;;;;;23.06;95.40;99813.81;5047547;28;20662;-62
2023/06/21 00:06:28;;;;;;;10.93;7.03;;;;;;;23.04;95.59;99831.25;5047912;28;20159;-62
2023/06/21 00:08:55;;;;;;;9.73;6.40;;;;;;;23.06;96.20;99840.97;5047756;28;20036;-62
2023/06/21 00:11:21;;;;;;;11.93;7.32;;;;;;;23.05;95.79;99843.81;5046322;28;20028;-62
2023/06/21 00:13:46;;;;;;;9.80;7.40;;;;;;;23.03;95.71;99848.53;5046116;28;20393;-62
2023/06/21 00:16:14;;;;;;;11.50;7.40;;;;;;;23.01;95.75;99854.09;5045758;28;20039;-62
2023/06/21 00:18:39;;;;;;;11.27;7.20;;;;;;;23.02;95.41;99841.38;5045823;28;20396;-62
2023/06/21 00:21:05;;;;;;;9.05;6.35;;;;;;;23.03;95.57;99846.66;5045913;28;20040;-62
2023/06/21 00:23:30;;;;;;;12.75;7.80;;;;;;;23.07;95.55;99844.53;5044816;28;20044;-62
2023/06/21 00:25:55;;;;;;;9.75;6.72;;;;;;;23.01;95.77;99853.22;5045053;28;20116;-63
2023/06/21 00:28:21;;;;;;;10.57;6.80;;;;;;;22.93;96.09;99853.88;5044362;28;20432;-62
2023/06/21 00:30:46;;;;;;;10.25;6.63;;;;;;;22.89;96.57;99866.00;5045345;28;20467;-62
2023/06/21 00:33:12;;;;;;;11.02;7.07;;;;;;;22.87;96.40;99862.53;5045282;28;20028;-62
2023/06/21 00:35:37;;;;;;;11.63;7.63;;;;;;;22.84;96.79;99867.34;5045821;28;20032;-62
2023/06/21 00:38:02;;;;;;;12.07;7.28;;;;;;;22.83;96.95;99863.78;5046433;28;20020;-63
2023/06/21 00:40:28;;;;;;;8.82;6.47;;;;;;;22.83;97.23;99868.38;5046013;28;20589;-63
2023/06/21 00:42:54;;;;;;;10.68;7.28;;;;;;;22.85;97.16;99863.69;5047633;28;20502;-62
2023/06/21 00:45:20;;;;;;;11.00;6.50;;;;;;;22.82;97.08;99864.78;5047726;28;20040;-62
2023/06/21 00:47:45;;;;;;;12.05;7.20;;;;;;;22.80;96.99;99861.34;5047069;28;20464;-62
2023/06/21 00:50:12;;;;;;;9.45;6.70;;;;;;;22.71;97.18;99855.84;5047499;28;20120;-62
2023/06/21 00:52:42;;;;;;;10.60;7.22;;;;;;;22.68;97.27;99872.38;5047626;28;20052;-62
2023/06/21 00:55:09;;;;;;;10.38;7.15;;;;;;;22.66;97.29;99875.22;5047401;28;20036;-62
2023/06/21 00:57:35;;;;;;;12.95;6.93;;;;;;;22.66;97.15;99880.63;5046766;28;20025;-63
2023/06/21 01:00:01;;;;;;;9.95;6.93;;;;;;;22.69;97.40;99884.94;5047382;28;20044;-62
2023/06/21 01:02:26;;;;;;;13.40;7.20;;;;;;;22.69;97.32;99874.94;5045884;28;20056;-63
2023/06/21 01:04:52;;;;;;;11.10;7.68;;;;;;;22.67;97.10;99873.38;5047195;28;20036;-62
2023/06/21 01:07:40;;;;;;;12.40;7.38;;;;;;;22.64;97.43;99866.34;5047079;28;20541;-62
2023/06/21 01:10:12;;;;;;;10.57;6.93;;;;;;;22.59;97.30;99867.72;5047159;28;20041;-62
2023/06/21 01:12:49;;;;;;;11.15;6.63;;;;;;;22.56;97.41;99867.97;5046475;28;20057;-62
2023/06/21 01:15:50;;;;;;;11.77;7.78;;;;;;;22.50;98.25;99880.19;5047368;28;20485;-62
2023/06/21 01:18:18;;;;;;;10.57;7.05;;;;;;;22.47;97.66;99876.84;5041705;28;20390;-62
2023/06/21 01:20:53;;;;;;;9.77;6.95;;;;;;;22.43;97.78;99887.09;5045284;28;20041;-62
2023/06/21 01:23:50;;;;;;;13.45;7.45;;;;;;;22.44;98.16;99891.50;5046491;28;20017;-62
2023/06/21 01:26:34;;;;;;;12.57;7.57;;;;;;;22.46;98.15;99900.38;5045002;28;20067;-62
2023/06/21 01:29:14;;;;;;;11.55;7.10;;;;;;;22.45;98.45;99908.66;5046311;28;20063;-63
2023/06/21 01:31:42;;;;;;;9.65;6.80;;;;;;;22.43;98.22;99916.91;5044581;28;20059;-62
2023/06/21 01:34:12;;;;;;;15.15;7.15;;;;;;;22.44;98.43;99924.03;5046771;28;20035;-62
2023/06/21 01:36:39;;;;;;;11.80;7.00;;;;;;;22.51;98.25;99913.56;5046686;28;20033;-62
2023/06/21 01:39:08;;;;;;;15.77;8.00;;;;;;;22.62;98.17;99914.41;5047093;28;20029;-62
2023/06/21 01:41:35;;;;;;;13.05;7.57;;;;;;;22.71;97.24;99916.38;5046254;28;20033;-62
2023/06/21 01:44:02;;;;;;;13.00;7.32;;;;;;;22.72;97.24;99912.66;5046731;28;20025;-62
2023/06/21 01:46:28;;;;;;;10.55;7.28;;;;;;;22.76;96.95;99921.41;5046038;28;20039;-62
2023/06/21 01:48:55;;;;;;;14.13;7.03;;;;;;;22.76;96.86;99929.53;5050554;28;20025;-62
2023/06/21 01:51:22;;;;;;;15.07;9.05;;;;;;;22.72;96.91;99939.78;5050165;28;20078;-62
2023/06/21 01:53:48;;;;;;;11.90;8.48;;;;;;;22.73;96.76;99946.06;5049978;28;20028;-63
2023/06/21 01:56:17;;;;;;;14.77;8.52;;;;;;;22.76;96.14;99946.69;5049801;28;20065;-62
2023/06/21 01:58:46;;;;;;;13.30;7.97;;;;;;;22.77;95.86;99945.69;5050402;28;20477;-62
2023/06/21 02:01:12;;;;;;;12.43;7.35;;;;;;;22.75;95.91;99934.09;5049700;28;20025;-62
2023/06/21 02:03:43;;;;;;;13.70;7.88;;;;;;;22.74;95.91;99936.94;5049042;28;20044;-62
2023/06/21 02:06:11;;;;;;;14.52;7.97;;;;;;;22.74;95.80;99936.94;5049509;28;20045;-61
2023/06/21 02:08:38;;;;;;;13.57;9.10;;;;;;;22.79;95.29;99943.69;5049880;28;20114;-62
2023/06/21 02:11:04;;;;;;;12.73;8.05;;;;;;;22.80;95.44;99952.72;5049703;28;20101;-63
2023/06/21 02:13:30;;;;;;;12.93;8.38;;;;;;;22.78;95.59;99938.41;5049895;28;20496;-62
2023/06/21 02:15:55;;;;;;;13.40;8.30;;;;;;;22.79;95.35;99934.69;5049279;28;20064;-62
2023/06/21 02:18:24;;;;;;;11.23;7.03;;;;;;;22.77;95.26;99937.53;5049964;28;20028;-62
2023/06/21 02:20:50;;;;;;;12.32;7.80;;;;;;;22.73;95.69;99941.53;5049368;28;20480;-63
2023/06/21 02:23:16;;;;;;;11.57;7.68;;;;;;;22.71;95.64;99954.34;5048911;28;20068;-62
2023/06/21 02:25:41;;;;;;;10.20;7.10;;;;;;;22.69;95.60;99956.31;5049898;28;20031;-62
2023/06/21 02:28:07;;;;;;;14.23;8.57;;;;;;;22.68;95.61;99960.03;5049058;28;20052;-62
2023/06/21 02:30:32;;;;;;;13.00;8.43;;;;;;;22.66;95.70;99971.97;5049770;28;20448;-62
2023/06/21 02:32:58;;;;;;;13.88;8.25;;;;;;;22.66;95.68;99983.69;5049570;28;20043;-62
2023/06/21 02:35:24;;;;;;;14.43;7.35;;;;;;;22.70;95.90;100004.13;5048905;28;20192;-62
2023/06/21 02:37:49;;;;;;;14.05;7.40;;;;;;;22.74;95.89;100035.44;5049736;28;20431;-62
2023/06/21 02:40:15;;;;;;;16.75;8.57;;;;;;;22.78;94.98;100123.72;5048944;28;20036;-62
2023/06/21 02:42:41;;;;;;;13.77;8.23;;;;;;;22.82;95.02;100179.44;5042731;28;20033;-61
2023/06/21 02:45:09;;;;;;;20.45;9.55;;;;;;;22.82;96.42;100152.31;5029830;28;20033;-60
2023/06/21 02:47:35;;;;;;;18.17;8.48;;;;;;;22.86;98.89;100099.53;5028890;28;20363;-59
2023/06/21 02:50:00;;;;;;;18.25;8.25;;;;;;;22.83;99.63;100094.34;5041400;28;20098;-60
2023/06/21 02:52:26;;;;;;;16.77;7.70;;;;;;;22.72;100.00;100086.22;5048581;28;20410;-61
2023/06/21 02:54:52;;;;;;;16.75;8.30;;;;;;;22.61;100.00;100083.53;5048911;28;20132;-61
2023/06/21 02:57:18;;;;;;;14.85;7.22;;;;;;;22.58;100.00;100072.94;5048529;28;20025;-61
2023/06/21 02:59:44;;;;;;;15.00;7.57;;;;;;;22.57;100.00;100064.94;5046819;28;20497;-60
2023/06/21 03:02:09;;;;;;;13.13;6.72;;;;;;;22.59;100.00;100058.38;5047397;28;20128;-60
2023/06/21 03:04:35;;;;;;;17.30;7.03;;;;;;;22.60;100.00;100053.84;5049112;28;20060;-60
2023/06/21 03:07:01;;;;;;;13.98;7.57;;;;;;;22.56;100.00;100045.09;5048948;28;20075;-60
2023/06/21 03:09:27;;;;;;;13.85;8.15;;;;;;;22.55;100.00;100037.06;5048899;28;20056;-60
2023/06/21 03:11:52;;;;;;;20.58;8.70;;;;;;;22.58;100.00;100034.97;5047572;28;20036;-60
2023/06/21 03:14:18;;;;;;;15.10;8.30;;;;;;;22.54;100.00;100041.63;5048224;28;20036;-60
2023/06/21 03:16:44;;;;;;;13.48;7.95;;;;;;;22.46;100.00;100078.44;5048694;28;20036;-60
2023/06/21 03:19:09;;;;;;;17.48;9.52;;;;;;;22.41;100.00;100086.94;5048832;28;20395;-59
2023/06/21 03:21:35;;;;;;;17.85;8.88;;;;;;;22.32;100.00;100092.25;5048180;28;20033;-57
2023/06/21 03:24:02;;;;;;;16.20;8.35;;;;;;;22.33;100.00;100083.97;5047327;28;20108;-58
2023/06/21 03:26:28;;;;;;;13.43;8.25;;;;;;;22.33;100.00;100078.56;5048526;28;20086;-57
2023/06/21 03:28:54;;;;;;;15.63;8.63;;;;;;;22.40;100.00;100052.69;5047785;28;20024;-58
2023/06/21 03:31:20;;;;;;;11.77;6.88;;;;;;;22.43;100.00;100038.91;5048029;28;20380;-57
2023/06/21 03:33:46;;;;;;;13.77;8.45;;;;;;;22.38;100.00;100049.25;5047194;28;20032;-57
2023/06/21 03:36:12;;;;;;;11.55;7.07;;;;;;;22.37;100.00;100061.09;5046570;28;20055;-58
2023/06/21 03:38:38;;;;;;;16.30;8.05;;;;;;;22.32;100.00;100071.44;5047176;28;20116;-57
2023/06/21 03:41:03;;;;;;;14.32;7.07;;;;;;;22.32;100.00;100062.44;5047397;28;20271;-58
2023/06/21 03:43:28;;;;;;;14.68;7.40;;;;;;;22.35;100.00;100054.03;5048203;28;20029;-58
2023/06/21 03:45:54;;;;;;;12.75;7.25;;;;;;;22.34;100.00;100042.34;5048465;28;20044;-58
2023/06/21 03:48:19;;;;;;;16.23;7.63;;;;;;;22.33;100.00;100047.88;5048038;28;20040;-58
2023/06/21 03:50:44;;;;;;;13.85;7.53;;;;;;;22.30;100.00;100040.00;5047603;28;20199;-59
2023/06/21 03:53:10;;;;;;;12.52;6.85;;;;;;;22.30;100.00;100043.59;5047652;28;20037;-58
2023/06/21 03:55:37;;;;;;;13.13;7.53;;;;;;;22.28;100.00;100040.13;5048116;28;20475;-59
2023/06/21 03:58:02;;;;;;;10.63;7.00;;;;;;;22.29;100.00;100038.28;5048270;28;20025;-59
2023/06/21 04:00:28;;;;;;;14.02;7.75;;;;;;;22.24;100.00;100046.75;5047266;28;20104;-59
2023/06/21 04:02:53;;;;;;;13.32;8.20;;;;;;;22.22;100.00;100047.88;5047930;28;20087;-59
2023/06/21 04:05:19;;;;;;;12.73;7.60;;;;;;;22.25;100.00;100059.34;5047316;28;20037;-59
2023/06/21 04:07:46;;;;;;;13.35;7.53;;;;;;;22.29;100.00;100071.66;5046719;28;20032;-59
2023/06/21 04:10:13;;;;;;;16.88;7.93;;;;;;;22.25;100.00;100064.75;5045253;28;20114;-60
2023/06/21 04:12:39;;;;;;;12.60;7.78;;;;;;;22.27;100.00;100070.94;5046296;28;20032;-59
2023/06/21 04:15:05;;;;;;;11.38;7.70;;;;;;;22.27;100.00;100079.06;5045972;28;20234;-60
2023/06/21 04:17:31;;;;;;;13.05;8.15;;;;;;;22.26;100.00;100066.47;5046477;28;20028;-60
2023/06/21 04:19:56;;;;;;;11.95;7.63;;;;;;;22.24;100.00;100068.44;5046165;28;20076;-60
2023/06/21 04:22:23;;;;;;;15.38;8.07;;;;;;;22.29;100.00;100066.22;5047431;28;20142;-60
2023/06/21 04:24:49;;;;;;;16.85;7.97;;;;;;;22.28;100.00;100085.31;5046794;28;20029;-61
2023/06/21 04:27:15;;;;;;;12.85;7.50;;;;;;;22.28;100.00;100078.06;5047891;28;20475;-61
2023/06/21 04:29:40;;;;;;;16.05;7.80;;;;;;;22.29;100.00;100085.19;5046894;28;20064;-61
2023/06/21 04:32:08;;;;;;;12.52;7.82;;;;;;;22.36;100.00;100105.41;5047669;28;20119;-61
2023/06/21 04:34:34;;;;;;;14.00;8.98;;;;;;;22.35;100.00;100110.97;5047219;28;20094;-61
2023/06/21 04:37:05;;;;;;;13.50;8.45;;;;;;;22.33;100.00;100104.78;5046466;28;20033;-61
2023/06/21 04:39:31;;;;;;;14.65;7.85;;;;;;;22.32;100.00;100098.53;5046560;28;20033;-62
2023/06/21 04:41:58;;;;;;;14.32;7.65;;;;;;;22.35;100.00;100100.13;5047177;28;20036;-62
2023/06/21 04:44:24;;;;;;;13.48;6.43;;;;;;;22.32;100.00;100106.66;5046620;28;20089;-62
2023/06/21 04:46:50;;;;;;;11.20;5.90;;;;;;;22.34;100.00;100101.97;5047019;28;20029;-62
2023/06/21 04:49:17;;;;;;;9.25;5.85;;;;;;;22.33;100.00;100093.94;5046963;28;20025;-62
2023/06/21 04:51:43;;;;;;;12.32;5.78;;;;;;;22.30;100.00;100067.97;5046111;28;20102;-62
2023/06/21 04:54:09;;;;;;;10.98;6.10;;;;;;;22.38;100.00;100072.78;5047256;28;20094;-63
2023/06/21 04:56:35;;;;;;;13.45;6.75;;;;;;;22.40;100.00;100068.09;5047590;28;20091;-62
2023/06/21 04:59:03;;;;;;;14.57;7.50;;;;;;;22.43;100.00;100052.44;5048724;28;20473;-62
2023/06/21 05:01:32;;;;;;;10.82;6.70;;;;;;;22.45;100.00;100055.03;5047969;28;20414;-62
2023/06/21 05:03:58;;;;;;;14.43;6.82;;;;;;;22.48;100.00;100050.22;5047587;28;20049;-63
2023/06/21 05:06:26;;;;;;;9.65;6.20;;;;;;;22.48;100.00;100061.06;5048840;28;20492;-62
2023/06/21 05:08:53;;;;;;;13.02;7.32;;;;;;;22.52;100.00;100062.53;5034424;28;20062;-62
2023/06/21 05:11:19;;;;;;;10.23;6.80;;;;;;;22.54;100.00;100082.28;5047559;28;20167;-62
2023/06/21 05:13:44;;;;;;;11.70;6.18;;;;;;;22.55;100.00;100078.63;5046582;28;20100;-63
2023/06/21 05:16:10;;;;;;;13.23;7.47;;;;;;;22.65;100.00;100087.69;5048425;28;20021;-63
2023/06/21 05:18:35;;;;;;;15.10;7.10;;;;;;;22.69;100.00;100091.03;5048346;28;20033;-63
2023/06/21 05:21:02;;;;;;;12.15;7.32;;;;;;;22.78;100.00;100107.44;5049286;28;20029;-64
2023/06/21 05:23:27;;;;;;;13.95;7.75;;;;;;;22.84;100.00;100089.78;5051913;28;20107;-63
2023/06/21 05:25:53;;;;;;;11.90;7.35;;;;;;;23.02;100.00;100102.72;5052146;28;20105;-64
2023/06/21 05:28:18;;;;;;;12.77;7.53;;;;;;;23.12;100.00;100100.97;5051535;28;20481;-63
2023/06/21 05:30:43;;;;;;;12.68;6.93;;;;;;;23.27;100.00;100110.59;5052134;28;20037;-64
2023/06/21 05:33:09;;;;;;;13.15;6.88;;;;;;;23.30;100.00;100104.91;5051735;28;20163;-64
2023/06/21 05:35:34;;;;;;;13.90;6.35;;;;;;;23.28;100.00;100104.16;5051833;28;20029;-64
2023/06/21 05:37:59;;;;;;;12.63;6.80;;;;;;;23.29;100.00;100108.59;5052563;28;20361;-64
2023/06/21 05:40:25;;;;;;;12.38;6.30;;;;;;;23.24;100.00;100116.22;5051845;28;20045;-64
2023/06/21 05:42:50;;;;;;;12.00;6.75;;;;;;;23.29;100.00;100119.44;5052929;28;20083;-64
2023/06/21 05:45:17;;;;;;;13.50;7.05;;;;;;;23.35;100.00;100116.25;5053093;28;20027;-64
2023/06/21 05:47:43;;;;;;;10.25;6.32;;;;;;;23.38;100.00;100117.81;5053472;28;20031;-64
2023/06/21 05:50:09;;;;;;;9.55;6.43;;;;;;;23.39;100.00;100125.84;5048382;28;20478;-65
2023/06/21 05:52:34;;;;;;;10.63;5.70;;;;;;;23.44;100.00;100136.34;5051897;28;20036;-64
2023/06/21 05:55:00;;;;;;;14.00;8.07;;;;;;;23.46;100.00;100128.91;5051730;28;20013;-65
2023/06/21 05:57:26;;;;;;;11.38;5.80;;;;;;;23.52;100.00;100130.25;5051727;28;20183;-65
2023/06/21 05:59:52;;;;;;;10.77;5.70;;;;;;;23.52;100.00;100143.84;5049654;28;20032;-65
2023/06/21 06:02:17;;;;;;;11.85;5.72;;;;;;;23.55;100.00;100152.59;5052806;28;20045;-65
2023/06/21 06:04:43;;;;;;;12.55;5.43;;;;;;;23.60;100.00;100165.78;5053051;28;20381;-65
2023/06/21 06:07:08;;;;;;;10.27;6.45;;;;;;;23.64;100.00;100167.25;5050995;28;20029;-65
2023/06/21 06:09:34;;;;;;;11.43;6.68;;;;;;;23.60;100.00;100174.78;5053219;28;20056;-65
2023/06/21 06:11:59;;;;;;;12.85;6.28;;;;;;;23.62;100.00;100175.53;5024925;28;20152;-66
2023/06/21 06:14:25;;;;;;;10.68;5.68;;;;;;;23.60;100.00;100172.06;5035964;28;20060;-66
2023/06/21 06:16:50;;;;;;;11.32;6.25;;;;;;;23.55;100.00;100158.03;5046685;28;20102;-66
2023/06/21 06:19:16;;;;;;;10.93;6.75;;;;;;;23.53;100.00;100164.56;5048010;28;20032;-67
2023/06/21 06:21:41;;;;;;;12.68;6.82;;;;;;;23.57;100.00;100166.03;5043813;28;20033;-66
2023/06/21 06:24:07;;;;;;;10.60;6.43;;;;;;;23.65;100.00;100175.28;5046250;28;20041;-66
2023/06/21 06:26:32;;;;;;;12.43;6.72;;;;;;;23.71;100.00;100169.31;5026030;28;20028;-66
2023/06/21 06:28:58;;;;;;;10.73;6.63;;;;;;;23.79;100.00;100182.28;5035213;28;20091;-66
2023/06/21 06:31:25;;;;;;;9.93;6.53;;;;;;;23.85;100.00;100182.63;5045337;28;20025;-66
2023/06/21 06:33:52;;;;;;;11.98;6.30;;;;;;;23.97;100.00;100191.59;5037192;28;20052;-66
2023/06/21 06:36:17;;;;;;;10.45;5.75;;;;;;;24.04;100.00;100198.22;5044165;28;20162;-66
2023/06/21 06:38:47;;;;;;;14.55;6.57;;;;;;;24.24;100.00;100191.97;5046034;28;20119;-66
2023/06/21 06:41:13;;;;;;;9.80;5.47;;;;;;;24.35;100.00;100181.00;5047179;28;20116;-66
2023/06/21 06:43:38;;;;;;;10.10;5.93;;;;;;;24.47;100.00;100179.97;5047532;28;20116;-65
2023/06/21 06:46:03;;;;;;;13.25;5.68;;;;;;;24.56;100.00;100182.72;5038579;28;20036;-66
2023/06/21 06:48:29;;;;;;;11.85;5.70;;;;;;;24.56;100.00;100174.56;5043486;28;20029;-66
2023/06/21 06:50:54;;;;;;;9.27;6.32;;;;;;;24.54;100.00;100187.47;5022816;28;20029;-66
2023/06/21 06:53:20;;;;;;;10.43;6.35;;;;;;;24.44;100.00;100180.22;5047655;28;20052;-66
2023/06/21 06:55:45;;;;;;;11.55;6.53;;;;;;;24.34;100.00;100176.59;5046323;28;20103;-65
2023/06/21 06:58:11;;;;;;;10.05;6.63;;;;;;;24.28;99.60;100171.69;5047926;28;20043;-65
2023/06/21 07:00:36;;;;;;;12.55;6.45;;;;;;;24.31;100.00;100174.13;5047556;28;20029;-65
2023/06/21 07:03:01;;;;;;;12.18;6.60;;;;;;;24.38;100.00;100183.50;5046535;28;20059;-65
2023/06/21 07:05:27;;;;;;;13.52;7.20;;;;;;;24.49;100.00;100181.56;5046747;28;20033;-65
2023/06/21 07:07:53;;;;;;;9.50;6.10;;;;;;;24.74;100.00;100184.88;5046349;28;20633;-65
2023/06/21 07:10:21;;;;;;;11.35;6.22;;;;;;;24.94;99.15;100183.97;5047340;28;20127;-65
2023/06/21 07:12:47;;;;;;;9.57;6.38;;;;;;;25.07;97.74;100173.72;5047427;28;20039;-65
2023/06/21 07:15:12;;;;;;;11.57;6.72;;;;;;;25.07;97.72;100185.47;5045501;28;20480;-65
2023/06/21 07:17:38;;;;;;;8.80;5.85;;;;;;;25.20;97.77;100196.13;5046250;28;20118;-65
2023/06/21 07:20:06;;;;;;;10.10;6.05;;;;;;;25.27;97.89;100202.75;5046567;28;20033;-65
2023/06/21 07:22:32;;;;;;;11.52;6.03;;;;;;;25.37;97.17;100214.56;5044727;28;20096;-65
2023/06/21 07:24:58;;;;;;;9.07;5.45;;;;;;;25.35;95.11;100211.97;5046695;28;20090;-65
2023/06/21 07:27:25;;;;;;;9.38;6.05;;;;;;;25.26;93.47;100210.03;5046799;28;20461;-65
2023/06/21 07:29:51;;;;;;;9.77;5.88;;;;;;;25.32;94.09;100216.81;5046110;28;20029;-65
2023/06/21 07:32:17;;;;;;;9.70;6.45;;;;;;;25.37;93.66;100223.56;5047406;28;20110;-65
2023/06/21 07:34:42;;;;;;;13.15;7.80;;;;;;;25.32;92.36;100228.53;5043311;28;20017;-65
2023/06/21 07:37:08;;;;;;;10.05;6.03;;;;;;;25.31;92.28;100218.66;5043252;28;20029;-65
2023/06/21 07:39:33;;;;;;;10.27;6.20;;;;;;;25.29;92.20;100225.22;5046877;28;20063;-65
2023/06/21 07:42:04;;;;;;;8.75;5.40;;;;;;;25.12;92.55;100237.66;5045877;28;20043;-64
2023/06/21 07:44:30;;;;;;;10.93;5.70;;;;;;;24.92;91.87;100235.81;5044976;28;20029;-65
2023/06/21 07:46:55;;;;;;;8.95;5.63;;;;;;;24.73;92.39;100224.81;5043354;28;20779;-66
2023/06/21 07:49:21;;;;;;;10.05;6.00;;;;;;;24.57;93.27;100227.13;5042330;28;20025;-65
2023/06/21 07:51:46;;;;;;;10.27;6.13;;;;;;;24.53;95.25;100236.53;5034178;28;20089;-66
2023/06/21 07:54:11;;;;;;;12.50;6.60;;;;;;;24.42;95.97;100231.16;5031761;28;20359;-66
2023/06/21 07:56:37;;;;;;;10.05;5.85;;;;;;;24.33;96.97;100231.97;5021741;28;20041;-68
2023/06/21 07:59:02;;;;;;;8.40;5.60;;;;;;;24.13;98.40;100255.41;5043082;28;20049;-67
2023/06/21 08:01:28;;;;;;;11.43;6.40;;;;;;;24.21;99.21;100266.50;5046991;28;20411;-68
2023/06/21 08:03:54;;;;;;;10.43;6.80;;;;;;;24.30;99.46;100262.16;5048185;28;20053;-68
2023/06/21 08:06:19;;;;;;;13.55;7.15;;;;;;;24.28;100.00;100255.97;5047137;28;20024;-67
2023/06/21 08:08:44;;;;;;;10.77;6.82;;;;;;;24.43;99.80;100260.09;5030154;28;20368;-68
2023/06/21 08:11:10;;;;;;;12.60;6.57;;;;;;;24.55;100.00;100257.19;5042937;28;20021;-68
2023/06/21 08:13:35;;;;;;;12.13;6.90;;;;;;;24.41;100.00;100246.63;5031598;28;20080;-68
2023/06/21 08:16:01;;;;;;;12.80;7.63;;;;;;;24.64;99.69;100236.47;5032581;28;20032;-67
2023/06/21 08:18:26;;;;;;;10.38;5.65;;;;;;;24.48;97.77;100219.78;5047310;28;20074;-67
2023/06/21 08:20:51;;;;;;;9.63;6.10;;;;;;;24.62;98.50;100224.88;5047632;28;20500;-67
2023/06/21 08:23:17;;;;;;;12.38;6.28;;;;;;;24.73;98.11;100211.22;5046729;28;20051;-66
2023/06/21 08:25:45;;;;;;;10.27;5.82;;;;;;;24.61;93.44;100212.28;5046681;28;20032;-68
2023/06/21 08:28:10;;;;;;;10.43;5.05;;;;;;;24.51;94.10;100200.47;5045848;28;20037;-67
2023/06/21 08:30:35;;;;;;;9.45;5.43;;;;;;;24.56;93.47;100200.94;5028302;28;20155;-67
2023/06/21 08:33:01;;;;;;;11.10;5.78;;;;;;;24.67;94.02;100184.53;5046677;28;20082;-67
2023/06/21 08:35:26;;;;;;;10.05;5.72;;;;;;;24.80;92.96;100168.88;5012335;28;20048;-68
2023/06/21 08:37:56;;;;;;;7.82;4.85;;;;;;;24.98;95.32;100164.50;5027296;28;20445;-67
2023/06/21 08:40:32;;;;;;;8.25;4.95;;;;;;;24.94;92.03;100168.53;5044807;28;20029;-69
2023/06/21 08:42:59;;;;;;;9.85;5.15;;;;;;;24.71;89.78;100150.66;5046859;28;20054;-68
2023/06/21 08:45:25;;;;;;;9.63;4.72;;;;;;;24.79;90.42;100148.09;5047291;28;20552;-68
2023/06/21 08:47:51;;;;;;;9.95;4.78;;;;;;;24.87;93.23;100134.69;5046657;28;20036;-68
2023/06/21 08:50:21;;;;;;;11.05;5.03;;;;;;;24.94;93.99;100135.84;5047463;28;20485;-67
2023/06/21 08:52:49;;;;;;;11.27;5.05;;;;;;;24.91;93.87;100125.22;5046446;28;20029;-67
2023/06/21 08:55:16;;;;;;;9.70;5.30;;;;;;;24.98;94.40;100131.84;5047621;28;20025;-68
2023/06/21 08:57:49;;;;;;;8.95;4.45;;;;;;;24.98;94.08;100133.69;5049038;28;20684;-67
2023/06/21 09:00:20;;;;;;;8.73;4.70;;;;;;;25.01;93.17;100138.88;5051638;28;20021;-68
2023/06/21 09:03:05;;;;;;;8.52;4.90;;;;;;;25.00;93.46;100142.59;5050584;28;20052;-68
2023/06/21 09:05:48;;;;;;;8.57;5.78;;;;;;;25.02;93.82;100157.81;5051548;28;20021;-68
2023/06/21 09:08:14;;;;;;;9.30;5.23;;;;;;;25.06;93.91;100172.84;5051261;28;20020;-68
2023/06/21 09:10:42;;;;;;;10.95;6.15;;;;;;;25.05;94.30;100187.47;5050821;28;20044;-68
2023/06/21 09:13:08;;;;;;;8.80;5.65;;;;;;;25.05;94.22;100192.91;5050302;28;20380;-69
2023/06/21 09:15:34;;;;;;;10.05;5.53;;;;;;;25.07;96.10;100212.69;5038110;28;20776;-68
2023/06/21 09:18:01;;;;;;;10.27;5.55;;;;;;;24.96;95.63;100236.44;5032786;28;20028;-67
2023/06/21 09:20:28;;;;;;;8.77;5.38;;;;;;;25.04;96.25;100250.22;5050287;28;20040;-64
2023/06/21 09:22:58;;;;;;;9.60;5.05;;;;;;;25.16;95.30;100244.53;5051117;28;20127;-63
2023/06/21 09:25:24;;;;;;;10.73;5.47;;;;;;;25.36;94.37;100248.22;5051383;28;20370;-62
2023/06/21 09:27:50;;;;;;;9.48;5.95;;;;;;;25.53;93.81;100243.00;5050135;28;20066;-62
2023/06/21 09:30:15;;;;;;;10.52;5.43;;;;;;;25.72;93.83;100234.88;5050503;28;20043;-63
2023/06/21 09:32:42;;;;;;;9.77;5.80;;;;;;;25.76;92.19;100233.59;5050566;28;20036;-62
2023/06/21 09:35:08;;;;;;;10.80;5.22;;;;;;;25.83;89.00;100231.16;5031825;28;20029;-62
2023/06/21 09:37:35;;;;;;;7.82;4.72;;;;;;;25.93;89.31;100219.25;5051030;28;20078;-62
2023/06/21 09:40:01;;;;;;;9.43;5.75;;;;;;;26.18;87.23;100227.94;5050206;28;20028;-62
2023/06/21 09:42:27;;;;;;;9.23;5.00;;;;;;;26.40;85.29;100230.34;5050542;28;20029;-62
2023/06/21 09:44:53;;;;;;;11.23;5.95;;;;;;;26.43;83.91;100240.94;5037773;28;20378;-63
2023/06/21 09:47:20;;;;;;;10.00;5.32;;;;;;;26.47;83.00;100248.72;5048380;28;20043;-62
2023/06/21 09:49:46;;;;;;;13.48;5.82;;;;;;;26.46;82.96;100248.84;5044403;28;20058;-62
2023/06/21 09:52:12;;;;;;;9.13;5.43;;;;;;;26.21;80.83;100252.19;5047553;28;20032;-62
2023/06/21 09:54:41;;;;;;;9.88;5.60;;;;;;;26.19;80.40;100267.81;5049600;28;20017;-62
2023/06/21 09:57:07;;;;;;;11.50;5.22;;;;;;;26.37;80.26;100271.56;5049095;28;20111;-63
2023/06/21 09:59:37;;;;;;;9.52;5.75;;;;;;;26.45;80.31;100285.34;5049119;28;20124;-62
2023/06/21 10:02:03;;;;;;;9.73;4.70;;;;;;;26.41;78.74;100273.84;5047951;28;20515;-61
2023/06/21 10:04:28;;;;;;;9.68;4.53;;;;;;;26.57;78.92;100284.19;5049523;28;20027;-62
2023/06/21 10:06:54;;;;;;;8.30;4.78;;;;;;;26.74;78.24;100280.72;5048267;28;20492;-61
2023/06/21 10:09:20;;;;;;;6.80;4.10;;;;;;;27.18;79.11;100280.09;5049477;28;20036;-62
2023/06/21 10:11:48;;;;;;;8.75;4.82;;;;;;;27.37;76.08;100290.97;5050187;28;20032;-62
2023/06/21 10:14:27;;;;;;;7.95;4.60;;;;;;;27.55;72.11;100289.16;5049481;28;20021;-61
2023/06/21 10:16:54;;;;;;;9.93;4.22;;;;;;;27.88;72.80;100302.22;5049138;28;20427;-62
2023/06/21 10:19:27;;;;;;;10.23;5.10;;;;;;;28.04;72.41;100307.91;5048493;28;20036;-62
2023/06/21 10:22:04;;;;;;;;;;;;;;;28.33;72.86;100308.59;5049337;28;20037;-61
2023/06/21 10:24:35;;;;;;;9.07;4.68;;;;;;;28.53;70.90;100308.44;5048509;28;19916;-62
2023/06/21 10:27:02;;;;;;;6.32;4.45;;;;;;;28.53;68.53;100303.84;5048764;28;20036;-62
2023/06/21 10:29:31;;;;;;;6.85;4.05;;;;;;;28.94;68.66;100307.78;5047904;28;20157;-62
2023/06/21 10:31:59;;;;;;;7.05;4.53;;;;;;;29.33;69.53;100309.09;5042899;28;20338;-61
2023/06/21 10:34:27;;;;;;;8.02;4.47;;;;;;;29.59;68.44;100309.94;5049829;28;20111;-62
2023/06/21 10:37:02;;;;;;;9.18;4.93;;;;;;;29.57;66.66;100301.88;5049022;28;20044;-61
2023/06/21 10:39:32;;;;;;;8.85;4.95;;;;;;;29.49;64.37;100307.31;5049727;28;20028;-62
2023/06/21 10:41:59;;;;;;;10.77;4.43;;;;;;;29.39;63.60;100308.47;5049650;28;20036;-61
2023/06/21 10:44:28;;;;;;;8.23;4.53;;;;;;;29.34;65.06;100311.69;5047874;28;20033;-62
2023/06/21 10:46:55;;;;;;;10.20;4.22;;;;;;;30.16;65.65;100295.44;5048736;28;20021;-62
2023/06/21 10:49:21;;;;;;;11.95;5.05;;;;;;;31.18;61.34;100302.25;5048104;28;20469;-61
2023/06/21 10:51:48;;;;;;;6.72;4.35;;;;;;;31.31;58.64;100302.56;5038795;28;20029;-61
2023/06/21 10:54:15;;;;;;;7.53;4.15;;;;;;;31.42;57.57;100293.09;5028711;28;20503;-61
2023/06/21 10:56:41;;;;;;;6.15;3.60;;;;;;;31.82;56.82;100292.97;5040821;28;20115;-62
2023/06/21 10:59:08;;;;;;;8.63;4.05;;;;;;;32.28;54.10;100297.56;5047695;28;20033;-62
2023/06/21 11:01:33;;;;;;;6.05;3.92;;;;;;;32.55;50.69;100294.31;5048124;28;20032;-61
2023/06/21 11:03:59;;;;;;;8.63;4.05;;;;;;;33.05;54.36;100290.97;5032174;28;20366;-61
2023/06/21 11:06:29;;;;;;;6.55;3.70;;;;;;;33.22;51.82;100293.38;5028940;28;20057;-60
2023/06/21 11:08:56;;;;;;;7.28;3.83;;;;;;;33.41;50.24;100288.38;5034304;28;20031;-61
2023/06/21 11:11:29;;;;;;;7.95;3.08;;;;;;;33.61;49.41;100286.78;5038290;28;20036;-61
2023/06/21 11:13:55;;;;;;;7.78;3.72;;;;;;;33.95;47.48;100284.31;5030904;28;20472;-61
2023/06/21 11:16:25;;;;;;;10.45;4.25;;;;;;;34.02;48.14;100288.00;5021394;28;20040;-61
2023/06/21 11:19:03;;;;;;;5.32;3.10;;;;;;;33.02;46.06;100283.94;5032134;28;20024;-61